Muehldorf, Germany

3:39 AM CEST on July 29, 2015 (GMT +0200)
Polling by Mhldorf | | Change Station
CLOSE
Current Station
Personal Weather Station
Location: Polling, BAYERN
Elevation: 1283 ft
Nearby Weather Stations

Elev 1283 ft 48.22 °N, 12.56 °E | Updated 4 seconds ago

Mostly Cloudy
Mostly Cloudy
54.0 °F
Feels Like 54.0 °F
N
0.0
Wind Variable Wind from SSW
Gusts 0.0 mph

Today
High -- | Low -- °F
--% Chance of Precip.
Yesterday
High -- | Low -- °F
Precip. -- in
5:40 AM 8:51 PM
Waxing Gibbous, 92% visible
Pressure 29.95 in
Visibility 6.2 miles
Clouds Few 2800 ft
Scattered Clouds 6000 ft
Mostly Cloudy 8000 ft
Dew Point 46 °F
Humidity 75%
Rainfall 0.09 in
Snow Depth Not available.
UV 0.0 out of 12
Pollen Not available.
Air Quality Not available.
Flu Activity Not available.
METAR EDDM 290120Z 27003KT 240V300 9999 FEW028 SCT060 BKN080 13/10 Q1014 NOSIG

More Conditions Fewer Conditions

Pressure 29.95 in
Visibility 6.2 miles
Clouds Few 2800 ft
Scattered Clouds 6000 ft
Mostly Cloudy 8000 ft
Dew Point 46 °F
Humidity 75%
Rainfall 0.09 in
Snow Depth Not available.
UV 0.0 out of 12
Pollen Not available.
Air Quality Not available.
Flu Activity Not available.
METAR EDDM 290120Z 27003KT 240V300 9999 FEW028 SCT060 BKN080 13/10 Q1014 NOSIG

More Conditions Fewer Conditions

10-Day Weather Forecast

×

Almanac

Astronomy

Jul. 29, 2015 Rise Set
Actual Time
Civil Twilight
Nautical Twilight
Astronomical Twilight
Moon
Length of Visible Light
Length of Day
Tomorrow will be .
, % of the Moon is Illuminated

Today's Extremes

Country Highs Country Lows

Community

WunderPhotos

Upload Photos

1,841,999 photos uploaded!

WunderBlogs® & News

Nearby

Air Quality

  Air Quality AQ Index Pollutant
Not available.

Snow Depth

Station Depth Elevation

Earthquake Activity

City Distance Mag. Time & Date
Minimum magnitude displayed is 2.5.

Coastal Water Temperatures

Place Temperature

Stations

Nearby Weather Stations

Station Location Temp. Windchill Dew Point Humidity Wind Precip. Elev Updated Type